Time;durP1;ratioP1;P1;durP2;ratioP2;P2;SDS_P1;SDS_P2;PMS_P1;PMS_P2;Temp;Humidity;BMP_temperature;BMP_pressure;BME280_temperature;BME280_humidity;BME280_pressure;Samples;Min_cycle;Max_cycle;Signal;HPM_P1;HPM_P2
2023/02/28 00:02:23;;;;;;;3.72;1.75;;;4.70;99.90;;;;;;6278214;22;20011;-94
2023/02/28 00:04:52;;;;;;;3.05;2.00;;;4.50;99.90;;;;;;6278027;22;20007;-93
2023/02/28 00:07:36;;;;;;;2.70;1.88;;;3.50;99.90;;;;;;6278572;22;20075;-94
2023/02/28 00:13:04;;;;;;;3.03;2.00;;;3.50;99.90;;;;;;6247321;22;20074;-93
2023/02/28 00:15:30;;;;;;;2.55;1.80;;;3.40;99.90;;;;;;6279002;22;20000;-93
2023/02/28 00:17:58;;;;;;;13.10;2.13;;;3.40;99.90;;;;;;6280203;22;20003;-93
2023/02/28 00:20:24;;;;;;;6.13;2.20;;;3.30;99.90;;;;;;6280997;22;20072;-92
2023/02/28 00:22:56;;;;;;;6.70;2.38;;;3.70;99.90;;;;;;6283486;22;20023;-92
2023/02/28 00:25:25;;;;;;;3.58;2.22;;;4.00;99.90;;;;;;6299550;22;20014;-93
2023/02/28 00:27:57;;;;;;;5.50;2.22;;;2.60;99.90;;;;;;6292459;22;20003;-92
2023/02/28 00:30:23;;;;;;;3.22;1.95;;;3.10;99.90;;;;;;6292397;22;20014;-92
2023/02/28 00:32:54;;;;;;;2.95;2.10;;;3.60;99.90;;;;;;6290940;22;20019;-93
2023/02/28 00:35:19;;;;;;;;;;;2.90;99.90;;;;;;6311373;22;20011;-93
2023/02/28 00:37:50;;;;;;;3.05;1.92;;;4.00;99.90;;;;;;6310466;22;19906;-92
2023/02/28 00:40:21;;;;;;;3.63;1.80;;;3.20;99.90;;;;;;6310359;22;19999;-92
2023/02/28 00:42:55;;;;;;;5.03;2.00;;;4.00;99.90;;;;;;6310133;22;20003;-94
2023/02/28 00:45:27;;;;;;;4.07;2.13;;;4.00;99.90;;;;;;6310599;22;20007;-93
2023/02/28 00:47:55;;;;;;;9.40;1.73;;;4.30;99.90;;;;;;6309707;22;20061;-94
2023/02/28 00:50:21;;;;;;;6.63;2.53;;;3.60;99.90;;;;;;6311074;22;20007;-93
2023/02/28 00:52:52;;;;;;;6.88;1.80;;;3.80;99.90;;;;;;6310843;22;20033;-94
2023/02/28 00:55:18;;;;;;;7.68;2.15;;;4.10;99.90;;;;;;6310796;22;19999;-93
2023/02/28 00:58:04;;;;;;;7.32;2.35;;;4.60;99.90;;;;;;6309984;22;19999;-90
2023/02/28 01:00:48;;;;;;;2.65;1.80;;;4.10;99.90;;;;;;6309387;22;20504;-92
2023/02/28 01:03:29;;;;;;;5.97;1.90;;;4.80;99.90;;;;;;6310764;22;20082;-92
2023/02/28 01:05:57;;;;;;;4.40;1.95;;;3.30;99.90;;;;;;6306925;22;20050;-92
2023/02/28 01:08:31;;;;;;;6.40;1.85;;;4.50;99.90;;;;;;6310754;22;20011;-92
2023/02/28 01:11:08;;;;;;;4.80;2.10;;;4.70;99.90;;;;;;6314475;22;20039;-93
2023/02/28 01:13:34;;;;;;;4.78;2.28;;;3.70;99.90;;;;;;6328927;22;20007;-92
2023/02/28 01:15:59;;;;;;;3.53;2.10;;;4.20;99.90;;;;;;6312996;22;20018;-91
2023/02/28 01:18:25;;;;;;;5.80;2.50;;;4.00;99.90;;;;;;6335691;22;20003;-93
2023/02/28 01:20:52;;;;;;;4.70;2.10;;;3.60;99.90;;;;;;6319556;22;20025;-93
2023/02/28 01:23:20;;;;;;;7.50;2.47;;;4.50;99.90;;;;;;6311262;22;20004;-93
2023/02/28 01:25:54;;;;;;;3.97;2.45;;;3.70;99.90;;;;;;6313290;22;19996;-94
2023/02/28 01:28:29;;;;;;;4.13;2.55;;;3.70;99.90;;;;;;6329976;22;20010;-93
2023/02/28 01:31:35;;;;;;;7.63;2.53;;;4.50;99.90;;;;;;6311381;22;19999;-94
2023/02/28 01:34:01;;;;;;;5.38;2.60;;;3.70;99.90;;;;;;6301546;22;20028;-92
2023/02/28 01:36:27;;;;;;;5.90;2.65;;;4.50;99.90;;;;;;6310694;22;20003;-93
2023/02/28 01:38:53;;;;;;;4.50;2.17;;;4.70;99.90;;;;;;6309442;22;20060;-93
2023/02/28 01:41:21;;;;;;;7.20;2.22;;;4.70;99.90;;;;;;6310347;22;20326;-94
2023/02/28 01:43:50;;;;;;;2.80;1.90;;;4.40;99.90;;;;;;6310727;22;20053;-93
2023/02/28 01:46:21;;;;;;;6.47;2.30;;;3.40;99.90;;;;;;6310541;22;19995;-93
2023/02/28 01:48:54;;;;;;;3.97;1.60;;;4.10;99.90;;;;;;6310029;22;20050;-93
2023/02/28 01:51:29;;;;;;;6.03;2.40;;;4.60;99.90;;;;;;6310296;22;19999;-92
2023/02/28 01:54:01;;;;;;;6.47;2.35;;;3.90;99.90;;;;;;6309246;22;20479;-93
2023/02/28 01:56:33;;;;;;;3.83;2.20;;;5.20;99.90;;;;;;6310387;22;20423;-93
2023/02/28 01:58:59;;;;;;;3.42;1.90;;;4.80;99.90;;;;;;6309471;22;20003;-93
2023/02/28 02:01:27;;;;;;;5.05;1.88;;;4.60;99.90;;;;;;6309586;22;20004;-93
2023/02/28 02:04:05;;;;;;;5.90;2.05;;;4.00;99.90;;;;;;6309787;22;20007;-95
2023/02/28 02:06:49;;;;;;;3.15;2.28;;;4.80;99.90;;;;;;6309861;22;20443;-92
2023/02/28 02:09:18;;;;;;;3.72;2.20;;;4.90;99.90;;;;;;6310115;22;20154;-91
2023/02/28 02:11:47;;;;;;;3.13;2.25;;;3.80;99.90;;;;;;6322215;22;20006;-94
2023/02/28 02:17:56;;;;;;;4.93;2.40;;;4.00;99.90;;;;;;6311134;22;20014;-94
2023/02/28 02:21:06;;;;;;;2.58;2.05;;;3.50;99.90;;;;;;6309345;22;20034;-94
2023/02/28 02:23:59;;;;;;;4.68;2.15;;;4.00;99.90;;;;;;6309353;22;20117;-94
2023/02/28 02:27:18;;;;;;;4.40;2.10;;;4.10;99.90;;;;;;6311885;22;20125;-94
2023/02/28 02:30:23;;;;;;;6.32;2.30;;;3.40;99.90;;;;;;6322720;22;20011;-92
2023/02/28 02:33:09;;;;;;;3.33;1.95;;;4.20;99.90;;;;;;6310039;22;19996;-93
2023/02/28 02:35:53;;;;;;;5.43;2.42;;;4.90;99.90;;;;;;6331366;22;20023;-92
2023/02/28 02:38:43;;;;;;;3.83;2.13;;;4.20;99.90;;;;;;6313617;22;20423;-94
2023/02/28 02:41:46;;;;;;;6.22;2.80;;;4.30;99.90;;;;;;6309998;22;20084;-92
2023/02/28 02:44:26;;;;;;;10.75;4.50;;;4.30;99.90;;;;;;6310026;22;20096;-94
2023/02/28 02:47:03;;;;;;;6.10;2.60;;;4.80;99.90;;;;;;6309798;22;20000;-91
2023/02/28 02:49:32;;;;;;;5.75;2.25;;;4.30;99.90;;;;;;6309780;22;20312;-93
2023/02/28 02:52:23;;;;;;;8.73;2.15;;;5.10;99.90;;;;;;6309405;22;20070;-93
2023/02/28 02:54:53;;;;;;;6.38;2.45;;;4.30;99.90;;;;;;6309342;22;20023;-92
2023/02/28 02:57:35;;;;;;;4.57;2.30;;;5.00;99.90;;;;;;6309526;22;20329;-93
2023/02/28 03:00:04;;;;;;;4.28;2.50;;;4.60;99.90;;;;;;6309820;22;20308;-95
2023/02/28 03:02:34;;;;;;;4.43;2.58;;;4.90;99.90;;;;;;6309992;22;20071;-93
2023/02/28 03:05:04;;;;;;;2.95;2.65;;;4.90;99.90;;;;;;6315870;22;20011;-92
2023/02/28 03:08:08;;;;;;;2.85;2.53;;;4.90;99.90;;;;;;6328997;22;20004;-92
2023/02/28 03:10:50;;;;;;;;;;;;;;;;;;;;;
2023/02/28 03:13:51;;;;;;;4.60;2.47;;;4.30;99.90;;;;;;6250211;22;20070;-93
2023/02/28 03:16:38;;;;;;;4.45;2.30;;;4.40;99.90;;;;;;6309576;22;20008;-93
2023/02/28 03:19:31;;;;;;;8.43;2.63;;;4.30;99.90;;;;;;6309283;22;20038;-94
2023/02/28 03:22:22;;;;;;;3.33;2.92;;;3.70;99.90;;;;;;6309194;22;20004;-94
2023/02/28 03:24:57;;;;;;;7.47;3.30;;;5.00;99.90;;;;;;6309924;22;20415;-94
2023/02/28 03:27:47;;;;;;;4.05;2.60;;;5.50;99.90;;;;;;6320894;22;20006;-93
2023/02/28 03:30:44;;;;;;;7.53;2.97;;;5.10;99.90;;;;;;6319080;22;20012;-93
2023/02/28 03:33:28;;;;;;;6.10;2.75;;;4.40;99.90;;;;;;6310838;22;20028;-93
2023/02/28 03:36:06;;;;;;;4.72;2.50;;;5.20;99.90;;;;;;6308980;22;20470;-93
2023/02/28 03:38:44;;;;;;;3.95;2.65;;;4.40;99.90;;;;;;6309557;22;20010;-91
2023/02/28 03:41:30;;;;;;;6.70;2.58;;;3.70;99.90;;;;;;6308655;22;20006;-93
2023/02/28 03:44:00;;;;;;;4.80;2.40;;;4.40;99.90;;;;;;6308928;22;20007;-92
2023/02/28 03:46:48;;;;;;;;;;;5.20;99.90;;;;;;6310062;22;20473;-93
2023/02/28 03:49:23;;;;;;;3.83;2.58;;;4.40;99.90;;;;;;6309662;22;19956;-94
2023/02/28 03:51:57;;;;;;;6.10;2.72;;;4.20;99.90;;;;;;6310816;22;19999;-93
2023/02/28 03:54:29;;;;;;;4.60;2.72;;;4.40;99.90;;;;;;6311321;22;20003;-92
2023/02/28 03:57:32;;;;;;;6.63;3.05;;;5.30;99.90;;;;;;6321862;22;20005;-92
2023/02/28 04:00:07;;;;;;;2.90;2.50;;;4.40;99.90;;;;;;6199624;22;20059;-91
2023/02/28 04:02:53;;;;;;;5.22;2.55;;;4.40;99.90;;;;;;6326785;22;20030;-91
2023/02/28 04:05:22;;;;;;;5.53;2.90;;;4.40;99.90;;;;;;6313340;22;20031;-92
2023/02/28 04:08:02;;;;;;;7.43;2.67;;;4.80;99.90;;;;;;6310822;22;19996;-93
2023/02/28 04:10:28;;;;;;;10.32;3.17;;;4.30;99.90;;;;;;6311055;22;20015;-93
2023/02/28 04:12:56;;;;;;;4.88;2.85;;;5.00;99.90;;;;;;6310426;22;20026;-93
2023/02/28 04:15:34;;;;;;;8.45;2.85;;;5.00;99.90;;;;;;6310976;22;20007;-92
2023/02/28 04:18:00;;;;;;;6.72;3.13;;;5.30;99.90;;;;;;6310443;22;20352;-92
2023/02/28 04:20:34;;;;;;;4.20;2.83;;;5.80;99.90;;;;;;6310762;22;19995;-92
2023/02/28 04:23:00;;;;;;;6.43;2.47;;;4.80;99.90;;;;;;6310406;22;20004;-93
2023/02/28 04:25:26;;;;;;;3.33;2.53;;;5.30;99.90;;;;;;6317944;22;20006;-92
2023/02/28 04:27:54;;;;;;;3.70;2.90;;;5.20;99.90;;;;;;6322131;22;20003;-92
2023/02/28 04:30:21;;;;;;;6.53;2.67;;;4.60;99.90;;;;;;6317513;22;20018;-93
2023/02/28 04:32:56;;;;;;;3.90;2.65;;;5.20;99.90;;;;;;6311333;22;20075;-91
2023/02/28 04:35:22;;;;;;;3.90;3.13;;;5.10;99.90;;;;;;6310489;22;20019;-93
2023/02/28 04:37:59;;;;;;;3.80;2.85;;;5.20;99.90;;;;;;6310798;22;20022;-93
2023/02/28 04:40:24;;;;;;;7.70;2.92;;;4.30;99.90;;;;;;6310747;22;20003;-92
2023/02/28 04:42:50;;;;;;;7.03;3.30;;;4.80;99.90;;;;;;6310530;22;20311;-92
2023/02/28 04:45:37;;;;;;;7.18;2.97;;;5.10;99.90;;;;;;6310793;22;19999;-92
2023/02/28 04:48:03;;;;;;;10.73;3.42;;;4.40;99.90;;;;;;6310402;22;20007;-92
2023/02/28 04:50:31;;;;;;;4.65;3.10;;;4.60;99.90;;;;;;6312018;22;20017;-93
2023/02/28 04:53:00;;;;;;;4.43;3.00;;;5.60;99.90;;;;;;6312379;22;20003;-92
2023/02/28 04:55:25;;;;;;;7.07;3.35;;;4.60;99.90;;;;;;6335013;22;20007;-93
2023/02/28 04:57:57;;;;;;;5.97;3.17;;;5.00;99.90;;;;;;6321534;22;20013;-92
2023/02/28 05:00:23;;;;;;;5.68;2.85;;;5.20;99.90;;;;;;6312458;22;20065;-94
2023/02/28 05:02:58;;;;;;;5.68;3.15;;;4.30;99.90;;;;;;6312259;22;20015;-94
2023/02/28 05:05:23;;;;;;;4.43;3.40;;;4.30;99.90;;;;;;6312277;22;20012;-93
2023/02/28 05:08:05;;;;;;;7.35;2.97;;;5.20;99.90;;;;;;6312071;22;20072;-95
2023/02/28 05:10:31;;;;;;;6.65;3.00;;;5.60;99.90;;;;;;6311269;22;20354;-94
2023/02/28 05:12:57;;;;;;;5.35;3.28;;;5.40;99.90;;;;;;6310859;22;19999;-93
2023/02/28 05:15:34;;;;;;;4.55;3.47;;;5.20;99.90;;;;;;6311140;22;20077;-95
2023/02/28 05:18:11;;;;;;;6.53;3.97;;;4.90;99.90;;;;;;6310023;22;20089;-93
2023/02/28 05:20:37;;;;;;;6.28;3.30;;;4.60;99.90;;;;;;6330907;22;19999;-92
2023/02/28 05:23:03;;;;;;;7.22;3.67;;;4.10;99.90;;;;;;6319191;22;19996;-94
2023/02/28 05:25:29;;;;;;;11.18;3.58;;;5.40;99.90;;;;;;6314900;22;20018;-93
2023/02/28 05:27:54;;;;;;;3.70;3.03;;;4.20;99.90;;;;;;6316502;22;20058;-93
2023/02/28 05:30:20;;;;;;;9.15;3.55;;;4.80;99.90;;;;;;6312040;22;20011;-93
2023/02/28 05:32:51;;;;;;;6.93;4.10;;;4.80;99.90;;;;;;6309700;22;20011;-95
2023/02/28 05:35:16;;;;;;;7.30;3.67;;;4.30;99.90;;;;;;6310161;22;20019;-93
2023/02/28 05:37:56;;;;;;;3.30;2.60;;;4.10;99.90;;;;;;6311294;22;20015;-93
2023/02/28 05:40:21;;;;;;;4.28;2.63;;;4.70;99.90;;;;;;6310912;22;20010;-95
2023/02/28 05:42:47;;;;;;;6.35;2.92;;;4.10;99.90;;;;;;6310616;22;19999;-90
2023/02/28 05:45:13;;;;;;;6.05;2.92;;;4.80;99.90;;;;;;6309175;22;19999;-94
2023/02/28 05:47:39;;;;;;;3.35;2.08;;;4.80;99.90;;;;;;6324042;22;20315;-92
2023/02/28 05:50:05;;;;;;;4.35;2.60;;;4.20;99.90;;;;;;6314314;22;20011;-93
2023/02/28 05:52:32;;;;;;;5.47;2.47;;;4.30;99.90;;;;;;6310703;22;20434;-93
2023/02/28 05:54:57;;;;;;;3.55;2.40;;;5.00;99.90;;;;;;6309370;22;20003;-92
2023/02/28 05:57:29;;;;;;;5.13;2.40;;;4.00;99.90;;;;;;6310129;22;20045;-92
2023/02/28 06:00:11;;;;;;;3.22;2.70;;;3.70;99.90;;;;;;6309316;22;20415;-93
2023/02/28 06:02:38;;;;;;;4.70;2.58;;;4.20;99.90;;;;;;6309263;22;19999;-93
2023/02/28 06:05:03;;;;;;;9.05;2.28;;;4.40;99.90;;;;;;6310221;22;20003;-90
2023/02/28 06:07:34;;;;;;;9.30;2.70;;;4.00;99.90;;;;;;6309729;22;20457;-92
2023/02/28 06:10:02;;;;;;;;;;;4.30;99.90;;;;;;6310185;22;20016;-93
2023/02/28 06:12:27;;;;;;;5.18;2.10;;;4.50;99.90;;;;;;6309977;22;19899;-93
2023/02/28 06:15:02;;;;;;;3.80;2.25;;;4.60;99.90;;;;;;6308882;22;20011;-93
2023/02/28 06:17:27;;;;;;;3.47;2.78;;;3.90;99.90;;;;;;6309510;22;20079;-94
2023/02/28 06:19:59;;;;;;;3.00;2.28;;;4.70;99.90;;;;;;6308908;22;20003;-94
2023/02/28 06:22:24;;;;;;;3.95;2.55;;;4.50;99.90;;;;;;6309448;22;20003;-92
2023/02/28 06:24:50;;;;;;;3.95;2.50;;;4.50;99.90;;;;;;6309291;22;20006;-92
2023/02/28 06:27:16;;;;;;;6.88;2.25;;;4.50;99.90;;;;;;6312653;22;20013;-92
2023/02/28 06:30:28;;;;;;;6.25;2.53;;;4.40;99.90;;;;;;6312542;22;20014;-93
2023/02/28 06:33:06;;;;;;;3.00;2.50;;;3.70;99.90;;;;;;6155737;23;20009;-93
2023/02/28 06:38:30;;;;;;;;;;;4.30;99.90;;;;;;6155531;23;20029;-93
2023/02/28 06:41:00;;;;;;;8.55;2.70;;;3.60;99.90;;;;;;6195864;22;20335;-92
2023/02/28 06:43:47;;;;;;;4.85;2.50;;;3.50;99.90;;;;;;6333304;22;20019;-91
2023/02/28 06:46:21;;;;;;;5.85;2.65;;;3.50;99.90;;;;;;6317305;22;20070;-93
2023/02/28 06:48:53;;;;;;;3.53;2.80;;;4.20;99.90;;;;;;6310526;22;19999;-93
2023/02/28 06:51:30;;;;;;;5.35;3.15;;;4.00;99.90;;;;;;6312835;22;20010;-91
2023/02/28 06:53:56;;;;;;;3.67;2.90;;;3.90;99.90;;;;;;6308232;22;20041;-92
2023/02/28 06:56:30;;;;;;;2.90;2.60;;;4.10;99.90;;;;;;6308365;22;20603;-91
2023/02/28 06:59:10;;;;;;;2.55;2.15;;;4.00;99.90;;;;;;6308995;22;20014;-92
2023/02/28 07:01:42;;;;;;;3.20;2.42;;;3.50;99.90;;;;;;6308994;22;20010;-91
2023/02/28 07:04:17;;;;;;;4.53;2.70;;;4.10;99.90;;;;;;6308440;22;19999;-92
2023/02/28 07:06:42;;;;;;;6.55;2.83;;;4.00;99.90;;;;;;6308756;22;20415;-91
2023/02/28 07:09:14;;;;;;;6.47;3.05;;;3.20;99.90;;;;;;6309563;22;20008;-92
2023/02/28 07:11:40;;;;;;;4.28;2.67;;;4.20;99.90;;;;;;6308939;22;20021;-93
2023/02/28 07:14:06;;;;;;;5.13;2.63;;;3.90;99.90;;;;;;6308288;22;20026;-92
2023/02/28 07:16:51;;;;;;;5.43;2.97;;;3.40;99.90;;;;;;6308677;22;20003;-93
2023/02/28 07:19:17;;;;;;;4.93;2.83;;;3.40;99.90;;;;;;6308860;22;20003;-92
2023/02/28 07:21:57;;;;;;;6.07;3.33;;;4.50;99.90;;;;;;6309168;22;20335;-93
2023/02/28 07:24:29;;;;;;;9.73;2.75;;;4.60;99.90;;;;;;6309297;22;20433;-91
2023/02/28 07:27:03;;;;;;;3.40;3.05;;;3.40;99.90;;;;;;6317178;22;20029;-93
2023/02/28 07:29:40;;;;;;;5.20;3.03;;;3.90;99.90;;;;;;6326770;22;20090;-94
2023/02/28 07:32:14;;;;;;;5.50;3.10;;;4.20;99.90;;;;;;6317853;22;19984;-91
2023/02/28 07:34:49;;;;;;;4.03;2.80;;;4.10;99.90;;;;;;6323462;22;20014;-93
2023/02/28 07:37:17;;;;;;;4.78;2.58;;;3.90;99.90;;;;;;6313057;22;19999;-91
2023/02/28 07:39:42;;;;;;;5.03;3.38;;;3.30;99.90;;;;;;6311171;22;20003;-92
2023/02/28 07:42:11;;;;;;;3.95;2.80;;;4.60;99.90;;;;;;6309635;22;20450;-92
2023/02/28 07:44:40;;;;;;;8.48;3.03;;;3.30;99.90;;;;;;6311264;22;20373;-94
2023/02/28 07:47:07;;;;;;;3.47;2.95;;;3.40;99.90;;;;;;6311274;22;20006;-92
2023/02/28 07:49:41;;;;;;;3.17;2.33;;;4.10;99.90;;;;;;6311781;22;20011;-91
2023/02/28 07:52:54;;;;;;;6.82;3.00;;;3.50;99.90;;;;;;6312010;22;20011;-91
2023/02/28 07:55:19;;;;;;;5.82;3.15;;;3.40;99.90;;;;;;6274321;22;20003;-93
2023/02/28 07:58:03;;;;;;;6.05;3.15;;;4.00;99.90;;;;;;6311351;22;20010;-91
2023/02/28 08:00:28;;;;;;;11.48;3.65;;;4.10;99.90;;;;;;6311733;22;20013;-94
2023/02/28 08:02:55;;;;;;;8.18;3.83;;;4.30;99.90;;;;;;6310892;22;20486;-95
2023/02/28 08:05:27;;;;;;;6.00;3.58;;;4.20;99.90;;;;;;6330081;22;20022;-92
2023/02/28 08:08:07;;;;;;;5.90;3.53;;;4.30;99.90;;;;;;6316568;22;20003;-91
2023/02/28 08:10:33;;;;;;;4.13;3.50;;;3.40;99.90;;;;;;6312838;22;20019;-93
2023/02/28 08:12:58;;;;;;;3.28;2.88;;;4.10;99.90;;;;;;6311809;22;20079;-91
2023/02/28 08:15:30;;;;;;;3.22;2.92;;;4.00;99.90;;;;;;6311647;22;20053;-92
2023/02/28 08:17:56;;;;;;;3.88;3.10;;;4.50;99.90;;;;;;6311260;22;20418;-92
2023/02/28 08:20:40;;;;;;;4.13;3.40;;;4.20;99.90;;;;;;6312494;22;20019;-91
2023/02/28 08:23:06;;;;;;;9.90;3.53;;;3.40;99.90;;;;;;6313395;22;20018;-91
2023/02/28 08:25:46;;;;;;;4.78;3.20;;;4.20;99.90;;;;;;6314482;22;20078;-94
2023/02/28 08:28:14;;;;;;;6.77;2.90;;;4.20;99.90;;;;;;6321434;22;20022;-91
2023/02/28 08:31:41;;;;;;;;;;;;;;;;;;;;;
2023/02/28 08:34:12;;;;;;;6.40;3.15;;;3.70;99.90;;;;;;6282464;22;20074;-92
2023/02/28 08:36:47;;;;;;;3.05;2.78;;;3.80;99.90;;;;;;6308829;22;20055;-91
2023/02/28 08:39:34;;;;;;;6.07;3.15;;;3.70;99.90;;;;;;6310019;22;20003;-90
2023/02/28 08:42:15;;;;;;;3.95;3.05;;;4.40;99.90;;;;;;6308817;22;20044;-89
2023/02/28 08:45:22;;;;;;;4.75;3.35;;;3.70;99.90;;;;;;6300791;22;20030;-90
2023/02/28 08:48:05;;;;;;;5.70;4.25;;;3.80;99.90;;;;;;6310651;22;20007;-93
2023/02/28 08:50:56;;;;;;;5.38;3.42;;;3.80;99.90;;;;;;6310734;22;20017;-90
2023/02/28 08:53:25;;;;;;;7.53;3.30;;;3.90;99.90;;;;;;6309633;22;20018;-91
2023/02/28 08:56:15;;;;;;;5.93;3.97;;;4.50;99.90;;;;;;6309320;22;20007;-89
2023/02/28 08:58:41;;;;;;;3.85;3.47;;;3.90;99.90;;;;;;6310478;22;20007;-91
2023/02/28 09:01:12;;;;;;;5.35;3.55;;;4.50;99.90;;;;;;6315296;22;20002;-92
2023/02/28 09:03:45;;;;;;;4.57;4.18;;;4.00;99.90;;;;;;6310915;22;20019;-93
2023/02/28 09:06:36;;;;;;;4.25;3.78;;;4.80;99.90;;;;;;6312229;22;20007;-86
2023/02/28 09:09:10;;;;;;;5.72;3.42;;;4.10;99.90;;;;;;6313863;22;20023;-91
2023/02/28 09:11:36;;;;;;;8.25;3.85;;;4.00;99.90;;;;;;6308829;22;20023;-89
2023/02/28 09:14:05;;;;;;;7.03;5.53;;;4.20;99.90;;;;;;6309140;22;20377;-89
2023/02/28 09:16:46;;;;;;;5.53;4.03;;;3.30;99.90;;;;;;6309561;22;20010;-93
2023/02/28 09:19:12;;;;;;;4.88;4.07;;;4.80;99.90;;;;;;6312523;22;20014;-87
2023/02/28 09:21:39;;;;;;;7.03;4.88;;;4.10;99.90;;;;;;6308786;22;20078;-91
2023/02/28 09:24:15;;;;;;;6.28;4.97;;;5.10;99.90;;;;;;6309731;22;20090;-90
2023/02/28 09:26:40;;;;;;;5.97;4.75;;;4.80;99.90;;;;;;6315368;22;19991;-89
2023/02/28 09:29:12;;;;;;;7.50;4.82;;;3.90;99.90;;;;;;6331667;22;20026;-94
2023/02/28 09:31:38;;;;;;;7.45;4.75;;;4.10;99.90;;;;;;6313346;22;19995;-91
2023/02/28 09:34:04;;;;;;;6.90;4.18;;;4.50;99.90;;;;;;6309535;22;20007;-89
2023/02/28 09:36:29;;;;;;;6.53;4.13;;;5.50;99.90;;;;;;6307310;22;20030;-88
2023/02/28 09:39:01;;;;;;;5.85;4.28;;;5.00;99.90;;;;;;6307396;22;20517;-90
2023/02/28 09:41:49;;;;;;;5.60;3.92;;;5.10;99.90;;;;;;6310069;22;20022;-90
2023/02/28 09:44:24;;;;;;;5.70;3.88;;;5.00;99.90;;;;;;6306509;22;20102;-90
2023/02/28 09:47:07;;;;;;;6.10;3.92;;;4.20;99.90;;;;;;6309450;22;20117;-93
2023/02/28 09:49:43;;;;;;;4.10;2.58;;;4.90;99.90;;;;;;6310454;22;20019;-91
2023/02/28 09:52:30;;;;;;;8.45;2.38;;;4.40;99.90;;;;;;6300037;22;20126;-90
2023/02/28 10:01:38;;;;;;;2.85;2.42;;;4.40;99.90;;;;;;6275842;22;20020;-89
2023/02/28 10:04:36;;;;;;;5.30;2.42;;;4.40;99.90;;;;;;6278531;22;20481;-93
2023/02/28 10:12:59;;;;;;;1.83;1.70;;;4.60;99.90;;;;;;6285767;22;20003;-92
2023/02/28 10:16:20;;;;;;;3.58;2.08;;;4.30;99.90;;;;;;6303383;22;19999;-94
2023/02/28 10:19:25;;;;;;;3.28;2.15;;;4.70;99.90;;;;;;6125549;22;20031;-90
2023/02/28 10:22:39;;;;;;;2.75;1.80;;;4.80;99.90;;;;;;6301592;22;19995;-89
2023/02/28 10:25:24;;;;;;;2.78;1.67;;;4.70;99.90;;;;;;6155822;23;20005;-91
2023/02/28 10:30:29;;;;;;;1.63;1.50;;;4.80;99.90;;;;;;6282713;22;19942;-91
2023/02/28 10:36:16;;;;;;;2.30;1.70;;;5.10;99.90;;;;;;6278213;22;20011;-92
2023/02/28 10:39:33;;;;;;;3.38;1.98;;;5.00;99.90;;;;;;6280210;22;20090;-91
2023/02/28 10:42:25;;;;;;;3.00;1.65;;;5.00;99.90;;;;;;6283975;22;20006;-94
2023/02/28 10:50:34;;;;;;;4.18;1.73;;;5.20;99.90;;;;;;6260451;22;20020;-92
2023/02/28 10:53:58;;;;;;;2.47;1.60;;;5.10;99.90;;;;;;6267021;23;20066;-93
2023/02/28 11:09:49;;;;;;;1.70;1.60;;;5.40;99.90;;;;;;6234890;22;20027;-90
2023/02/28 11:12:31;;;;;;;1.50;1.40;;;6.10;99.90;;;;;;6246761;22;19996;-93
2023/02/28 11:15:29;;;;;;;3.50;1.70;;;5.60;99.90;;;;;;6246388;22;20443;-91
2023/02/28 11:21:52;;;;;;;2.60;1.90;;;5.50;99.90;;;;;;6249123;23;20320;-94
2023/02/28 11:24:42;;;;;;;1.75;1.33;;;5.80;99.90;;;;;;6250507;23;19996;-95
2023/02/28 11:27:49;;;;;;;1.75;1.48;;;5.80;99.90;;;;;;6256248;22;20091;-92
2023/02/28 11:30:31;;;;;;;2.72;1.65;;;6.10;99.90;;;;;;6275423;22;20027;-94
2023/02/28 11:33:50;;;;;;;2.85;1.70;;;6.70;99.90;;;;;;6312385;22;20035;-93
2023/02/28 11:36:32;;;;;;;2.70;1.95;;;5.90;99.90;;;;;;6313628;22;20026;-95
2023/02/28 11:39:24;;;;;;;1.95;1.50;;;5.50;99.90;;;;;;6315559;22;19999;-94
2023/02/28 11:42:32;;;;;;;1.70;1.52;;;6.00;99.90;;;;;;6316876;22;20042;-93
2023/02/28 11:45:49;;;;;;;5.18;1.70;;;5.90;98.80;;;;;;6309757;22;20019;-90
2023/02/28 11:48:58;;;;;;;2.78;1.60;;;6.00;98.50;;;;;;6310023;22;20007;-91
2023/02/28 11:51:42;;;;;;;1.45;1.25;;;6.00;99.50;;;;;;6310511;22;20004;-93
2023/02/28 11:54:43;;;;;;;2.83;1.60;;;6.80;99.70;;;;;;6309975;22;20003;-92
2023/02/28 11:57:21;;;;;;;3.50;1.30;;;6.10;99.00;;;;;;6309948;22;19999;-92
2023/02/28 12:00:28;;;;;;;1.92;1.42;;;6.20;99.30;;;;;;6309063;22;20003;-90
2023/02/28 12:03:24;;;;;;;1.30;1.20;;;6.30;99.00;;;;;;6186362;22;20018;-91
2023/02/28 12:06:13;;;;;;;2.00;1.45;;;6.30;98.80;;;;;;6309761;22;20031;-92
2023/02/28 12:09:03;;;;;;;1.98;1.55;;;6.60;98.50;;;;;;6309937;22;19999;-92
2023/02/28 12:11:44;;;;;;;5.35;1.73;;;6.30;97.70;;;;;;6311033;22;20003;-92
2023/02/28 12:16:53;;;;;;;1.60;1.50;;;6.20;97.30;;;;;;6310840;22;20023;-94
2023/02/28 12:19:26;;;;;;;2.90;1.40;;;6.70;97.70;;;;;;6299677;22;20003;-91
2023/02/28 12:22:41;;;;;;;1.70;1.50;;;5.80;97.30;;;;;;6311483;22;20002;-93
2023/02/28 12:35:25;;;;;;;2.78;1.52;;;6.40;97.60;;;;;;6317562;22;20038;-94
2023/02/28 12:38:17;;;;;;;3.00;1.42;;;7.10;98.50;;;;;;6316738;22;20023;-93
2023/02/28 12:40:56;;;;;;;3.75;1.65;;;6.10;97.30;;;;;;6313718;22;20023;-94
2023/02/28 12:44:00;;;;;;;1.83;1.50;;;6.60;97.30;;;;;;6311327;22;19999;-92
2023/02/28 12:47:14;;;;;;;2.35;2.00;;;6.60;97.10;;;;;;6310324;22;20023;-92
2023/02/28 12:49:53;;;;;;;3.13;1.38;;;6.60;96.80;;;;;;6253144;22;19995;-92
2023/02/28 12:52:57;;;;;;;3.15;1.80;;;6.60;96.50;;;;;;6320347;22;19999;-91
2023/02/28 12:56:01;;;;;;;7.65;1.83;;;6.70;96.60;;;;;;6311785;22;20018;-92
2023/02/28 12:58:42;;;;;;;1.85;1.67;;;6.70;96.80;;;;;;6313645;22;19996;-91
2023/02/28 13:01:52;;;;;;;2.15;1.77;;;6.70;96.40;;;;;;6317619;22;19993;-94
2023/02/28 13:09:37;;;;;;;2.00;1.83;;;6.90;97.80;;;;;;6301414;22;20026;-93
2023/02/28 13:12:20;;;;;;;3.15;1.77;;;6.90;97.30;;;;;;6311146;22;20419;-90
2023/02/28 13:15:29;;;;;;;2.53;1.70;;;6.90;97.90;;;;;;6309842;22;20007;-91
2023/02/28 13:18:03;;;;;;;2.85;1.77;;;7.10;97.00;;;;;;6309093;22;20437;-92
2023/02/28 13:20:37;;;;;;;2.88;2.22;;;7.50;96.40;;;;;;6309732;22;19999;-93
2023/02/28 13:23:05;;;;;;;2.30;1.77;;;7.50;96.00;;;;;;6308633;22;20025;-92
2023/02/28 13:25:51;;;;;;;1.63;1.52;;;7.60;96.70;;;;;;6308845;22;20306;-92
2023/02/28 13:29:06;;;;;;;4.45;1.85;;;7.10;96.10;;;;;;6309638;22;20319;-91
2023/02/28 13:35:10;;;;;;;1.70;1.60;;;6.50;96.80;;;;;;6309723;22;20029;-92
2023/02/28 13:38:00;;;;;;;3.30;2.10;;;7.30;96.40;;;;;;6331990;22;20015;-93
2023/02/28 13:40:37;;;;;;;3.33;1.95;;;7.30;96.20;;;;;;6315502;22;20007;-93
2023/02/28 13:43:56;;;;;;;1.75;1.65;;;8.10;96.60;;;;;;6313031;22;19999;-93
2023/02/28 13:46:33;;;;;;;1.60;1.50;;;7.30;96.10;;;;;;6308879;22;20027;-91
2023/02/28 13:49:44;;;;;;;2.13;1.90;;;8.10;96.30;;;;;;6310050;22;20015;-92
2023/02/28 13:52:28;;;;;;;13.73;2.40;;;7.60;95.90;;;;;;6271705;22;20004;-92
2023/02/28 13:55:27;;;;;;;1.60;1.50;;;8.80;96.30;;;;;;6309814;22;20003;-91
2023/02/28 13:58:02;;;;;;;1.92;1.70;;;7.50;95.60;;;;;;6309591;22;20003;-93
2023/02/28 14:01:20;;;;;;;2.08;1.88;;;7.50;95.80;;;;;;6309828;22;20006;-91
2023/02/28 14:04:32;;;;;;;1.80;1.70;;;6.90;95.40;;;;;;6309614;22;20014;-92
2023/02/28 14:06:59;;;;;;;2.00;1.67;;;7.70;95.40;;;;;;6305724;22;20102;-93
2023/02/28 14:10:08;;;;;;;2.88;2.00;;;8.50;95.60;;;;;;6311321;22;20015;-91
2023/02/28 14:13:04;;;;;;;2.33;2.10;;;7.90;95.30;;;;;;6237194;22;20007;-91
2023/02/28 14:15:44;;;;;;;2.90;2.05;;;7.90;95.00;;;;;;6310392;22;20010;-93
2023/02/28 14:18:13;;;;;;;;;;;7.90;95.00;;;;;;6310056;22;20008;-92
2023/02/28 14:20:58;;;;;;;1.92;1.83;;;7.90;95.20;;;;;;6309583;22;19899;-93
2023/02/28 14:24:03;;;;;;;2.25;2.08;;;8.80;96.30;;;;;;6310169;22;19996;-92
2023/02/28 14:27:07;;;;;;;2.65;1.98;;;7.90;95.00;;;;;;6309657;22;20011;-91
2023/02/28 14:29:50;;;;;;;2.85;1.77;;;7.20;94.90;;;;;;6309929;22;20045;-93
2023/02/28 14:33:07;;;;;;;3.08;1.90;;;8.20;94.90;;;;;;6310224;22;19999;-92
2023/02/28 14:35:54;;;;;;;1.85;1.73;;;7.90;94.80;;;;;;6162207;23;20053;-92
2023/02/28 14:39:15;;;;;;;1.98;1.75;;;8.80;94.70;;;;;;6197572;22;20008;-93
2023/02/28 14:41:47;;;;;;;2.17;1.70;;;8.60;94.70;;;;;;6309984;22;20003;-91
2023/02/28 14:44:32;;;;;;;2.53;1.88;;;8.40;95.20;;;;;;6311020;22;19999;-93
2023/02/28 14:47:16;;;;;;;2.88;1.70;;;8.90;94.20;;;;;;6311377;22;20355;-93
2023/02/28 14:49:45;;;;;;;1.55;1.45;;;8.30;93.30;;;;;;6312471;22;20011;-92
2023/02/28 14:52:33;;;;;;;2.63;1.65;;;9.00;93.70;;;;;;6319641;22;20027;-91
2023/02/28 14:58:19;;;;;;;2.83;1.50;;;8.30;93.80;;;;;;6314544;22;20080;-93
2023/02/28 15:01:02;;;;;;;3.58;2.00;;;8.40;93.50;;;;;;6257557;22;20003;-93
2023/02/28 15:03:44;;;;;;;3.38;2.00;;;9.10;93.80;;;;;;6309697;22;19999;-92
2023/02/28 15:06:35;;;;;;;3.90;1.88;;;8.10;94.60;;;;;;6309587;22;20003;-93
2023/02/28 15:09:51;;;;;;;2.60;1.80;;;8.40;93.70;;;;;;6187257;23;20017;-92
2023/02/28 15:16:22;;;;;;;3.40;2.10;;;8.10;93.00;;;;;;6187372;23;20073;-91
2023/02/28 15:19:16;;;;;;;6.35;2.15;;;8.00;93.20;;;;;;6187252;23;20009;-95
2023/02/28 15:22:06;;;;;;;2.20;1.80;;;8.70;93.10;;;;;;6187688;23;20005;-94
2023/02/28 15:24:50;;;;;;;5.82;2.28;;;8.50;92.90;;;;;;6189109;23;20009;-92